Time;durP1;ratioP1;P1;durP2;ratioP2;P2;SDS_P1;SDS_P2;PMS_P1;PMS_P2;Temp;Humidity;BMP_temperature;BMP_pressure;BME280_temperature;BME280_humidity;BME280_pressure;Samples;Min_cycle;Max_cycle;Signal;HPM_P1;HPM_P2
2023/03/14 00:00:15;;;;;;;2.22;0.40;;;8.90;99.90;;;;;;5006860;28;20030;-65
2023/03/14 00:02:41;;;;;;;1.15;0.40;;;9.00;99.90;;;;;;5013520;28;20038;-64
2023/03/14 00:05:07;;;;;;;1.33;0.38;;;8.80;99.90;;;;;;5018151;28;20052;-64
2023/03/14 00:07:37;;;;;;;1.25;0.32;;;8.70;99.90;;;;;;5013402;28;20041;-64
2023/03/14 00:10:14;;;;;;;0.93;0.35;;;8.90;99.90;;;;;;5009071;28;20238;-64
2023/03/14 00:12:41;;;;;;;1.30;0.22;;;8.80;99.90;;;;;;5017362;28;20099;-64
2023/03/14 00:15:08;;;;;;;1.25;0.20;;;9.00;99.90;;;;;;5009381;28;20132;-64
2023/03/14 00:17:35;;;;;;;0.85;0.20;;;9.10;99.90;;;;;;5009924;28;20026;-64
2023/03/14 00:20:07;;;;;;;0.70;0.20;;;9.10;99.90;;;;;;5007206;28;20069;-64
2023/03/14 00:22:34;;;;;;;0.60;0.20;;;9.30;99.90;;;;;;5010197;28;20078;-65
2023/03/14 00:25:00;;;;;;;0.70;0.17;;;8.90;99.90;;;;;;5007937;28;20026;-65
2023/03/14 00:27:25;;;;;;;0.30;0.20;;;9.30;99.90;;;;;;5010528;28;20038;-64
2023/03/14 00:29:51;;;;;;;1.50;0.20;;;9.30;99.90;;;;;;5010676;28;20046;-66
2023/03/14 00:32:17;;;;;;;0.22;0.10;;;9.30;99.90;;;;;;5010996;28;20109;-65
2023/03/14 00:34:42;;;;;;;0.25;0.10;;;9.30;99.90;;;;;;5009661;28;20034;-64
2023/03/14 00:37:08;;;;;;;0.32;0.10;;;9.30;99.90;;;;;;5009125;28;20037;-65
2023/03/14 00:39:34;;;;;;;2.05;0.20;;;9.40;99.90;;;;;;5008983;28;20067;-66
2023/03/14 00:41:59;;;;;;;0.30;0.20;;;9.40;99.90;;;;;;5011714;28;20033;-65
2023/03/14 00:44:25;;;;;;;0.35;0.10;;;9.30;99.90;;;;;;5011979;28;20605;-65
2023/03/14 00:46:51;;;;;;;2.42;0.10;;;9.40;99.90;;;;;;5007492;28;20376;-65
2023/03/14 00:49:16;;;;;;;0.15;0.10;;;9.40;99.90;;;;;;5009337;28;20066;-64
2023/03/14 00:51:42;;;;;;;1.90;0.10;;;9.40;99.90;;;;;;5016773;28;20113;-65
2023/03/14 00:54:08;;;;;;;0.10;0.00;;;9.30;99.90;;;;;;5013080;28;20113;-65
2023/03/14 00:56:33;;;;;;;2.17;0.10;;;9.50;99.90;;;;;;5008958;28;20041;-65
2023/03/14 00:58:59;;;;;;;0.35;0.05;;;9.50;99.90;;;;;;5009174;28;20034;-65
2023/03/14 01:01:25;;;;;;;0.52;0.00;;;9.60;99.90;;;;;;5014538;28;20111;-65
2023/03/14 01:03:55;;;;;;;0.25;0.10;;;9.60;99.90;;;;;;5008918;28;20399;-63
2023/03/14 01:06:24;;;;;;;0.43;0.10;;;9.50;99.90;;;;;;5008845;28;20045;-64
2023/03/14 01:08:50;;;;;;;0.70;0.20;;;9.40;99.90;;;;;;5009792;28;20032;-62
2023/03/14 01:11:22;;;;;;;0.20;0.00;;;9.40;99.90;;;;;;5010819;28;20117;-64
2023/03/14 01:13:48;;;;;;;1.40;0.00;;;9.40;99.90;;;;;;5014989;28;20099;-63
2023/03/14 01:16:14;;;;;;;0.43;0.10;;;9.40;99.90;;;;;;5012694;28;20383;-65
2023/03/14 01:18:43;;;;;;;0.60;0.10;;;9.40;99.90;;;;;;5009181;28;20080;-65
2023/03/14 01:21:21;;;;;;;0.47;0.00;;;9.30;99.90;;;;;;5012684;28;20103;-64
2023/03/14 01:23:48;;;;;;;1.73;0.10;;;9.30;99.90;;;;;;5009606;28;20033;-65
2023/03/14 01:26:18;;;;;;;0.80;0.35;;;9.30;99.90;;;;;;5008183;28;20089;-65
2023/03/14 01:28:45;;;;;;;0.30;0.10;;;9.10;99.90;;;;;;5010933;28;20447;-65
2023/03/14 01:31:11;;;;;;;0.40;0.10;;;9.10;99.90;;;;;;5011336;28;20478;-64
2023/03/14 01:33:38;;;;;;;0.73;0.10;;;9.10;99.90;;;;;;5009463;28;20132;-65
2023/03/14 01:36:05;;;;;;;1.00;0.20;;;9.20;99.90;;;;;;5009471;28;20042;-65
2023/03/14 01:38:31;;;;;;;0.40;0.10;;;9.10;99.90;;;;;;5006832;28;20025;-65
2023/03/14 01:40:57;;;;;;;0.00;0.00;;;9.10;99.90;;;;;;5007193;28;20092;-65
2023/03/14 01:43:24;;;;;;;1.13;0.03;;;9.00;99.90;;;;;;5008182;28;20422;-65
2023/03/14 01:46:31;;;;;;;0.55;0.17;;;9.00;99.90;;;;;;5009636;28;20058;-62
2023/03/14 01:49:08;;;;;;;0.82;0.10;;;9.00;99.90;;;;;;5006012;28;20517;-65
2023/03/14 01:52:17;;;;;;;1.85;0.15;;;9.00;99.90;;;;;;5009981;28;20124;-65
2023/03/14 01:54:49;;;;;;;0.30;0.00;;;8.90;99.90;;;;;;4998258;28;20046;-65
2023/03/14 01:57:28;;;;;;;0.65;0.10;;;9.00;99.90;;;;;;4990271;28;20052;-65
2023/03/14 02:00:11;;;;;;;0.30;0.05;;;8.80;99.90;;;;;;5008836;28;20029;-62
2023/03/14 02:02:39;;;;;;;1.27;0.00;;;9.00;99.90;;;;;;5003640;28;20080;-63
2023/03/14 02:05:05;;;;;;;0.10;0.00;;;9.00;99.90;;;;;;5004656;28;20034;-65
2023/03/14 02:07:47;;;;;;;0.75;0.10;;;8.90;99.90;;;;;;5015543;28;20069;-65
2023/03/14 02:10:14;;;;;;;1.42;0.08;;;8.90;99.90;;;;;;5012770;28;20021;-64
2023/03/14 02:12:40;;;;;;;1.05;0.20;;;8.90;99.90;;;;;;5010478;28;20021;-65
2023/03/14 02:15:06;;;;;;;0.10;0.05;;;8.80;99.90;;;;;;5018243;28;20116;-64
2023/03/14 02:17:32;;;;;;;0.77;0.10;;;8.90;99.90;;;;;;5012063;28;20423;-65
2023/03/14 02:20:09;;;;;;;0.35;0.00;;;8.80;99.90;;;;;;5006275;28;20036;-64
2023/03/14 02:22:36;;;;;;;0.45;0.10;;;8.70;99.90;;;;;;5008650;28;20092;-65
2023/03/14 02:25:21;;;;;;;0.57;0.10;;;8.70;99.90;;;;;;5000845;28;20136;-65
2023/03/14 02:27:47;;;;;;;1.55;0.10;;;8.70;99.90;;;;;;5009516;28;20545;-65
2023/03/14 02:30:25;;;;;;;1.33;0.35;;;8.60;99.90;;;;;;5015575;28;20660;-65
2023/03/14 02:32:58;;;;;;;0.32;0.00;;;8.60;99.90;;;;;;5007995;28;20087;-65
2023/03/14 02:35:27;;;;;;;2.08;0.10;;;8.70;99.90;;;;;;5003241;28;20099;-65
2023/03/14 02:38:27;;;;;;;0.52;0.10;;;8.80;99.90;;;;;;5004977;28;20034;-62
2023/03/14 02:40:52;;;;;;;0.52;0.10;;;8.80;99.90;;;;;;5017572;28;20496;-62
2023/03/14 02:43:19;;;;;;;0.93;0.03;;;8.80;99.90;;;;;;5009589;28;20029;-65
2023/03/14 02:45:46;;;;;;;0.43;0.10;;;8.90;99.90;;;;;;5009587;28;20462;-65
2023/03/14 02:48:23;;;;;;;0.22;0.00;;;9.10;99.90;;;;;;5006392;28;20490;-64
2023/03/14 02:50:52;;;;;;;1.55;0.00;;;8.80;99.90;;;;;;5010215;28;20188;-65
2023/03/14 02:53:21;;;;;;;1.83;0.10;;;9.30;99.90;;;;;;5014043;28;20390;-65
2023/03/14 02:55:50;;;;;;;0.13;0.03;;;9.00;99.90;;;;;;5015259;28;20133;-65
2023/03/14 02:58:17;;;;;;;0.43;0.10;;;8.90;99.90;;;;;;5013793;28;20270;-64
2023/03/14 03:00:42;;;;;;;0.73;0.00;;;8.90;99.90;;;;;;5014961;28;20029;-65
2023/03/14 03:03:08;;;;;;;0.52;0.10;;;8.90;99.90;;;;;;5010784;28;20536;-65
2023/03/14 03:05:34;;;;;;;1.70;0.20;;;8.90;99.90;;;;;;5013867;28;20033;-65
2023/03/14 03:08:00;;;;;;;0.70;0.20;;;8.90;99.90;;;;;;5013877;28;20104;-64
2023/03/14 03:10:27;;;;;;;0.32;0.10;;;8.90;99.90;;;;;;5019030;28;20473;-64
2023/03/14 03:12:52;;;;;;;2.47;0.10;;;8.90;99.90;;;;;;5010178;28;20045;-65
2023/03/14 03:15:18;;;;;;;0.32;0.00;;;8.90;99.90;;;;;;5013816;28;20034;-66
2023/03/14 03:17:44;;;;;;;0.30;0.10;;;9.00;99.90;;;;;;5013802;28;20466;-65
2023/03/14 03:20:10;;;;;;;0.30;0.00;;;9.00;99.90;;;;;;5014457;28;20393;-65
2023/03/14 03:22:37;;;;;;;0.50;0.10;;;9.00;99.90;;;;;;5012291;28;20033;-65
2023/03/14 03:25:04;;;;;;;0.50;0.10;;;8.90;99.90;;;;;;5010678;28;20069;-65
2023/03/14 03:27:35;;;;;;;1.30;0.10;;;8.90;99.90;;;;;;5016840;28;21741;-65
2023/03/14 03:30:02;;;;;;;2.40;0.10;;;8.90;99.90;;;;;;5011981;28;20120;-65
2023/03/14 03:32:28;;;;;;;0.30;0.10;;;9.00;99.90;;;;;;5014282;28;20030;-65
2023/03/14 03:34:54;;;;;;;0.30;0.10;;;9.10;99.90;;;;;;5024624;28;20117;-65
2023/03/14 03:37:19;;;;;;;0.38;0.17;;;9.10;99.90;;;;;;5015907;28;20150;-65
2023/03/14 03:39:45;;;;;;;0.40;0.15;;;9.10;99.90;;;;;;5011249;28;20030;-65
2023/03/14 03:42:10;;;;;;;0.43;0.10;;;9.10;99.90;;;;;;5010084;28;20030;-64
2023/03/14 03:44:36;;;;;;;0.40;0.10;;;9.00;99.90;;;;;;5011251;28;20041;-64
2023/03/14 03:47:02;;;;;;;0.25;0.10;;;9.00;99.90;;;;;;5009142;28;20483;-65
2023/03/14 03:49:31;;;;;;;0.50;0.15;;;8.90;99.90;;;;;;5012500;28;20050;-65
2023/03/14 03:51:58;;;;;;;1.25;0.30;;;9.00;99.90;;;;;;5011068;28;20045;-62
2023/03/14 03:54:24;;;;;;;0.90;0.30;;;9.00;99.90;;;;;;5013382;28;20026;-65
2023/03/14 03:56:49;;;;;;;0.77;0.28;;;9.00;99.90;;;;;;5009515;28;20692;-65
2023/03/14 03:59:15;;;;;;;1.17;0.25;;;8.90;99.90;;;;;;5014797;28;20064;-65
2023/03/14 04:01:41;;;;;;;0.70;0.15;;;8.90;99.90;;;;;;5008792;28;20083;-65
2023/03/14 04:04:06;;;;;;;0.82;0.20;;;8.90;99.90;;;;;;5007594;28;20239;-64
2023/03/14 04:06:32;;;;;;;0.73;0.13;;;8.90;99.90;;;;;;5005886;28;20116;-65
2023/03/14 04:08:58;;;;;;;0.52;0.15;;;8.80;99.90;;;;;;5009505;28;20041;-62
2023/03/14 04:11:24;;;;;;;1.52;0.20;;;9.00;99.90;;;;;;5004327;28;20030;-65
2023/03/14 04:13:49;;;;;;;2.65;0.20;;;9.00;99.90;;;;;;5003494;28;20401;-66
2023/03/14 04:16:18;;;;;;;2.97;0.60;;;9.00;99.90;;;;;;5004842;28;20034;-65
2023/03/14 04:18:44;;;;;;;0.63;0.20;;;8.90;99.90;;;;;;5009813;28;20033;-65
2023/03/14 04:21:09;;;;;;;0.30;0.10;;;9.00;99.90;;;;;;5013362;28;20037;-66
2023/03/14 04:23:35;;;;;;;2.15;0.40;;;8.90;99.90;;;;;;5011822;28;20025;-65
2023/03/14 04:26:01;;;;;;;0.95;0.40;;;9.00;99.90;;;;;;5006851;28;20748;-63
2023/03/14 04:28:27;;;;;;;0.93;0.30;;;9.00;99.90;;;;;;5005634;28;20021;-65
2023/03/14 04:30:52;;;;;;;0.98;0.30;;;8.90;99.90;;;;;;5009741;28;20133;-65
2023/03/14 04:33:18;;;;;;;1.63;0.30;;;9.00;99.90;;;;;;5009612;28;20057;-65
2023/03/14 04:35:45;;;;;;;1.65;0.28;;;8.90;99.90;;;;;;5013067;28;20395;-66
2023/03/14 04:38:11;;;;;;;2.20;0.57;;;9.00;99.90;;;;;;5021916;28;20489;-65
2023/03/14 04:40:38;;;;;;;1.17;0.45;;;8.80;99.90;;;;;;5000514;28;20424;-66
2023/03/14 04:43:04;;;;;;;1.88;0.35;;;8.80;99.90;;;;;;5010874;28;20104;-63
2023/03/14 04:45:29;;;;;;;2.53;0.40;;;8.90;99.90;;;;;;5003528;28;20117;-65
2023/03/14 04:47:55;;;;;;;1.70;0.28;;;8.90;99.90;;;;;;5002450;28;20052;-66
2023/03/14 04:50:21;;;;;;;2.75;0.52;;;8.90;99.90;;;;;;5006184;28;20716;-65
2023/03/14 04:52:46;;;;;;;2.50;0.20;;;8.90;99.90;;;;;;5019291;28;20025;-65
2023/03/14 04:55:12;;;;;;;3.30;0.32;;;8.90;99.90;;;;;;5017652;28;20057;-65
2023/03/14 04:57:38;;;;;;;3.95;0.50;;;8.90;99.90;;;;;;5008261;28;20026;-69
2023/03/14 05:00:07;;;;;;;2.25;0.52;;;8.80;99.90;;;;;;4993180;28;20041;-69
2023/03/14 05:02:34;;;;;;;2.10;0.40;;;8.80;99.90;;;;;;5018991;28;20029;-69
2023/03/14 05:05:00;;;;;;;2.63;0.32;;;8.80;99.90;;;;;;5006514;28;20026;-69
2023/03/14 05:07:25;;;;;;;3.95;0.47;;;8.90;99.90;;;;;;5008409;28;20033;-67
2023/03/14 05:09:53;;;;;;;3.20;0.90;;;8.90;99.90;;;;;;5012320;28;20132;-69
2023/03/14 05:12:19;;;;;;;1.08;0.40;;;8.90;99.90;;;;;;5007554;28;20121;-69
2023/03/14 05:14:45;;;;;;;1.33;0.30;;;8.80;99.90;;;;;;5008172;28;20490;-70
2023/03/14 05:17:11;;;;;;;1.23;0.40;;;8.80;99.90;;;;;;5007951;28;20077;-68
2023/03/14 05:19:36;;;;;;;1.90;0.38;;;8.80;99.90;;;;;;5009044;28;20117;-69
2023/03/14 05:22:02;;;;;;;3.40;0.52;;;8.70;99.90;;;;;;5008856;28;20109;-65
2023/03/14 05:24:28;;;;;;;3.28;0.35;;;8.70;99.90;;;;;;5009004;28;20033;-70
2023/03/14 05:26:54;;;;;;;5.45;0.52;;;8.70;99.90;;;;;;5008267;28;20077;-71
2023/03/14 05:29:19;;;;;;;5.95;0.60;;;8.60;99.90;;;;;;5008707;28;20034;-68
2023/03/14 05:31:45;;;;;;;5.07;0.50;;;8.70;99.90;;;;;;4990977;28;20032;-69
2023/03/14 05:34:11;;;;;;;3.92;0.52;;;8.60;99.90;;;;;;5008516;28;20758;-68
2023/03/14 05:36:36;;;;;;;0.75;0.30;;;8.60;99.90;;;;;;5007052;28;20030;-67
2023/03/14 05:39:02;;;;;;;4.53;0.57;;;8.50;99.90;;;;;;5008424;28;20061;-67
2023/03/14 05:41:29;;;;;;;2.05;0.47;;;8.40;99.90;;;;;;5013166;28;20452;-71
2023/03/14 05:43:54;;;;;;;5.60;0.75;;;8.50;99.90;;;;;;5015657;28;20414;-70
2023/03/14 05:46:20;;;;;;;2.10;0.30;;;8.60;99.90;;;;;;5012338;28;20034;-70
2023/03/14 05:48:46;;;;;;;1.80;0.52;;;8.50;99.90;;;;;;5013864;28;20049;-68
2023/03/14 05:51:11;;;;;;;5.75;0.73;;;8.50;99.90;;;;;;5011043;28;20049;-69
2023/03/14 05:53:37;;;;;;;2.72;0.43;;;8.60;99.90;;;;;;5010708;28;21060;-69
2023/03/14 05:56:02;;;;;;;2.10;0.52;;;8.70;99.90;;;;;;5017645;28;20041;-69
2023/03/14 05:58:28;;;;;;;5.22;0.40;;;8.70;99.90;;;;;;5007328;28;20026;-70
2023/03/14 06:00:54;;;;;;;3.10;0.70;;;8.70;99.90;;;;;;5005314;28;20026;-68
2023/03/14 06:03:19;;;;;;;2.78;0.50;;;8.70;99.90;;;;;;5007478;28;20476;-69
2023/03/14 06:05:45;;;;;;;5.20;0.52;;;8.60;99.90;;;;;;5007852;28;20167;-69
2023/03/14 06:08:11;;;;;;;7.25;0.40;;;8.50;99.90;;;;;;5007881;28;20076;-69
2023/03/14 06:10:37;;;;;;;3.72;0.60;;;8.60;99.90;;;;;;5007197;28;20091;-69
2023/03/14 06:13:03;;;;;;;4.72;0.70;;;8.50;99.90;;;;;;5012209;28;20464;-69
2023/03/14 06:15:28;;;;;;;2.70;0.52;;;8.50;99.90;;;;;;5010578;28;20041;-70
2023/03/14 06:17:55;;;;;;;2.75;0.70;;;8.50;99.90;;;;;;5008555;28;20037;-69
2023/03/14 06:20:21;;;;;;;4.40;0.60;;;8.50;99.90;;;;;;5008530;28;20601;-69
2023/03/14 06:22:46;;;;;;;2.58;0.70;;;8.50;99.90;;;;;;5009729;28;20113;-67
2023/03/14 06:25:12;;;;;;;1.42;0.40;;;8.50;99.90;;;;;;5006056;28;20109;-72
2023/03/14 06:27:38;;;;;;;2.97;0.50;;;8.70;99.90;;;;;;4985191;28;20065;-68
2023/03/14 06:30:04;;;;;;;1.58;0.50;;;8.70;99.90;;;;;;5015519;28;20104;-69
2023/03/14 06:32:29;;;;;;;2.97;0.40;;;8.70;99.90;;;;;;5010622;28;20517;-71
2023/03/14 06:34:57;;;;;;;11.23;1.92;;;8.80;99.90;;;;;;5015940;28;20034;-71
2023/03/14 06:37:22;;;;;;;1.58;0.40;;;8.80;99.90;;;;;;5015423;28;20091;-69
2023/03/14 06:39:48;;;;;;;4.65;0.77;;;8.90;99.90;;;;;;5027641;28;20441;-68
2023/03/14 06:42:13;;;;;;;1.67;0.30;;;8.60;99.90;;;;;;5010866;28;20036;-71
2023/03/14 06:44:39;;;;;;;2.97;0.57;;;8.60;99.90;;;;;;5010937;28;20057;-71
2023/03/14 06:47:05;;;;;;;3.38;0.57;;;8.60;99.90;;;;;;5011932;28;20044;-71
2023/03/14 06:49:30;;;;;;;5.20;1.23;;;8.80;99.90;;;;;;5010831;28;20512;-72
2023/03/14 06:51:56;;;;;;;4.53;0.50;;;8.80;99.90;;;;;;5018680;28;20103;-68
2023/03/14 06:54:21;;;;;;;5.75;0.85;;;8.90;99.90;;;;;;5012438;28;20048;-68
2023/03/14 06:56:47;;;;;;;6.55;0.55;;;8.90;99.90;;;;;;5010960;28;20044;-76
2023/03/14 06:59:13;;;;;;;7.53;0.47;;;8.90;99.90;;;;;;5015897;28;20068;-73
2023/03/14 07:01:38;;;;;;;5.95;0.68;;;8.90;99.90;;;;;;5011865;28;20030;-73
2023/03/14 07:04:04;;;;;;;7.30;0.60;;;9.00;99.90;;;;;;4994151;28;20034;-71
2023/03/14 07:06:30;;;;;;;3.35;0.40;;;8.90;99.90;;;;;;4992728;28;20037;-75
2023/03/14 07:08:56;;;;;;;3.42;0.70;;;8.90;99.90;;;;;;5011723;28;20044;-68
2023/03/14 07:11:22;;;;;;;4.50;0.50;;;8.90;99.90;;;;;;5008464;28;20036;-69
2023/03/14 07:13:48;;;;;;;2.47;0.32;;;8.90;99.90;;;;;;5023471;28;20035;-69
2023/03/14 07:16:14;;;;;;;1.85;0.60;;;8.90;99.90;;;;;;5015812;28;20121;-70
2023/03/14 07:18:40;;;;;;;4.05;0.63;;;9.00;99.90;;;;;;5011292;28;20034;-70
2023/03/14 07:21:07;;;;;;;2.85;0.60;;;9.00;99.90;;;;;;5011704;28;20546;-69
2023/03/14 07:23:33;;;;;;;2.83;0.35;;;9.00;99.90;;;;;;5010133;28;20898;-69
2023/03/14 07:25:59;;;;;;;1.13;0.35;;;9.10;99.90;;;;;;5018283;28;20022;-70
2023/03/14 07:28:25;;;;;;;1.73;0.28;;;9.10;99.90;;;;;;5011686;28;20084;-69
2023/03/14 07:30:50;;;;;;;1.50;0.30;;;9.30;99.90;;;;;;5008831;28;20029;-67
2023/03/14 07:33:16;;;;;;;1.63;0.45;;;9.30;99.90;;;;;;5017053;28;20112;-70
2023/03/14 07:35:42;;;;;;;3.03;0.32;;;9.30;99.90;;;;;;5011071;28;20041;-68
2023/03/14 07:38:08;;;;;;;3.80;0.50;;;9.40;99.90;;;;;;5004353;28;20061;-69
2023/03/14 07:40:33;;;;;;;2.42;1.02;;;9.50;99.90;;;;;;5009372;28;20022;-69
2023/03/14 07:42:59;;;;;;;2.17;0.60;;;9.50;99.90;;;;;;5010665;28;20034;-69
2023/03/14 07:45:24;;;;;;;1.35;0.30;;;9.50;99.90;;;;;;5010961;28;20390;-73
2023/03/14 07:47:50;;;;;;;2.97;0.85;;;9.50;99.90;;;;;;5011272;28;20026;-72
2023/03/14 07:50:16;;;;;;;3.70;0.50;;;9.40;99.90;;;;;;5019420;28;20058;-68
2023/03/14 07:52:42;;;;;;;3.45;0.60;;;9.50;99.90;;;;;;5010874;28;20113;-70
2023/03/14 07:55:08;;;;;;;3.45;0.60;;;9.50;99.90;;;;;;5007423;28;20783;-71
2023/03/14 07:57:33;;;;;;;2.85;0.70;;;9.60;99.90;;;;;;4992509;28;20043;-71
2023/03/14 07:59:59;;;;;;;2.60;0.47;;;9.70;99.90;;;;;;5010009;28;20042;-70
2023/03/14 08:02:24;;;;;;;3.15;0.40;;;9.80;99.90;;;;;;5008951;28;21753;-69
2023/03/14 08:04:50;;;;;;;3.47;0.40;;;9.90;99.90;;;;;;5014327;28;20060;-70
2023/03/14 08:07:16;;;;;;;2.28;0.43;;;10.00;99.90;;;;;;5005083;28;20038;-65
2023/03/14 08:09:42;;;;;;;2.67;0.30;;;10.10;99.90;;;;;;5022710;28;20037;-71
2023/03/14 08:12:08;;;;;;;1.88;0.35;;;10.10;99.90;;;;;;5018102;28;20076;-70
2023/03/14 08:14:34;;;;;;;1.58;0.45;;;10.20;99.90;;;;;;5012324;28;20041;-71
2023/03/14 08:16:59;;;;;;;1.60;0.40;;;10.30;99.90;;;;;;5012782;28;20056;-74
2023/03/14 08:19:25;;;;;;;4.43;1.15;;;10.50;99.90;;;;;;5008059;28;20038;-72
2023/03/14 08:21:51;;;;;;;2.17;0.20;;;10.80;99.90;;;;;;5010104;28;20048;-72
2023/03/14 08:24:16;;;;;;;1.67;0.30;;;10.90;99.90;;;;;;5008867;28;20113;-65
2023/03/14 08:26:42;;;;;;;2.00;0.15;;;10.90;99.90;;;;;;5008773;28;20042;-69
2023/03/14 08:29:08;;;;;;;1.60;0.20;;;11.10;99.90;;;;;;5010054;28;20029;-70
2023/03/14 08:31:36;;;;;;;2.00;0.35;;;11.30;99.90;;;;;;5007222;28;20026;-69
2023/03/14 08:34:02;;;;;;;3.88;0.40;;;10.80;99.90;;;;;;5020228;28;20033;-66
2023/03/14 08:36:28;;;;;;;2.03;0.50;;;11.10;99.90;;;;;;5021613;28;20040;-69
2023/03/14 08:38:54;;;;;;;1.88;0.40;;;11.30;99.90;;;;;;5009589;28;20108;-71
2023/03/14 08:41:19;;;;;;;4.38;0.70;;;11.00;99.90;;;;;;5008635;28;20058;-68
2023/03/14 08:43:45;;;;;;;3.40;0.35;;;11.00;99.90;;;;;;5009461;28;20030;-70
2023/03/14 08:46:11;;;;;;;0.75;0.20;;;11.10;99.90;;;;;;5010667;28;20043;-70
2023/03/14 08:48:36;;;;;;;1.38;0.30;;;11.10;99.90;;;;;;5008719;28;20105;-68
2023/03/14 08:51:12;;;;;;;1.25;0.20;;;11.10;99.90;;;;;;5009003;28;20076;-70
2023/03/14 08:53:38;;;;;;;1.40;0.30;;;11.00;99.90;;;;;;5015661;28;20221;-70
2023/03/14 08:56:05;;;;;;;1.75;0.22;;;10.90;99.90;;;;;;5009286;28;20485;-72
2023/03/14 08:58:31;;;;;;;1.33;0.20;;;10.90;99.90;;;;;;5008318;28;20033;-71
2023/03/14 09:00:57;;;;;;;2.05;0.20;;;10.90;99.90;;;;;;5008479;28;20034;-71
2023/03/14 09:03:24;;;;;;;0.50;0.20;;;11.00;99.90;;;;;;5007874;28;20057;-69
2023/03/14 09:05:50;;;;;;;2.55;0.40;;;11.10;99.90;;;;;;5009805;28;20441;-72
2023/03/14 09:08:16;;;;;;;2.40;0.30;;;10.90;99.90;;;;;;5008843;28;20091;-63
2023/03/14 09:10:49;;;;;;;2.33;0.30;;;11.10;99.90;;;;;;5064782;28;20403;-67
2023/03/14 09:13:15;;;;;;;2.35;0.40;;;11.10;99.90;;;;;;5042924;28;20107;-65
2023/03/14 09:15:42;;;;;;;0.88;0.20;;;11.20;99.90;;;;;;5044075;28;20057;-66
2023/03/14 09:18:07;;;;;;;1.27;0.28;;;11.20;99.90;;;;;;5045050;28;20037;-70
2023/03/14 09:20:33;;;;;;;2.45;0.30;;;11.30;99.90;;;;;;5042805;28;20031;-68
2023/03/14 09:22:58;;;;;;;1.55;0.28;;;11.40;99.90;;;;;;5045287;28;20454;-69
2023/03/14 09:25:24;;;;;;;3.00;0.32;;;11.40;99.90;;;;;;5043595;28;20030;-72
2023/03/14 09:27:50;;;;;;;1.35;0.25;;;11.40;99.90;;;;;;5047881;28;20108;-71
2023/03/14 09:30:15;;;;;;;1.25;0.25;;;11.80;99.90;;;;;;5044231;28;20497;-74
2023/03/14 09:32:41;;;;;;;2.33;0.30;;;11.90;99.90;;;;;;5041951;28;20045;-72
2023/03/14 09:35:07;;;;;;;1.50;0.20;;;12.30;99.90;;;;;;5044505;28;20049;-70
2023/03/14 09:37:32;;;;;;;0.75;0.20;;;12.40;99.90;;;;;;5043375;28;20060;-73
2023/03/14 09:39:58;;;;;;;1.30;0.13;;;12.30;99.90;;;;;;5045046;28;20067;-73
2023/03/14 09:42:27;;;;;;;1.77;0.20;;;12.00;99.90;;;;;;5043325;28;20481;-73
2023/03/14 09:45:06;;;;;;;0.52;0.20;;;11.80;99.90;;;;;;5044863;28;20025;-72
2023/03/14 09:47:34;;;;;;;2.35;0.30;;;11.80;99.90;;;;;;5043025;28;20532;-69
2023/03/14 09:50:03;;;;;;;0.45;0.10;;;12.10;99.90;;;;;;5043557;28;20091;-71
2023/03/14 09:52:36;;;;;;;0.88;0.10;;;12.30;99.90;;;;;;5042835;28;20504;-73
2023/03/14 09:55:22;;;;;;;0.47;0.13;;;12.40;99.90;;;;;;5044801;28;20025;-71
2023/03/14 09:57:57;;;;;;;1.65;0.22;;;12.10;99.90;;;;;;5052264;28;20033;-70
2023/03/14 10:00:27;;;;;;;3.10;0.20;;;11.80;99.90;;;;;;5049898;28;20124;-69
2023/03/14 10:03:02;;;;;;;0.95;0.17;;;11.80;99.90;;;;;;5044739;28;20029;-71
2023/03/14 10:05:29;;;;;;;2.75;0.40;;;11.60;99.90;;;;;;5042175;28;20041;-70
2023/03/14 10:07:55;;;;;;;1.75;0.10;;;11.70;99.90;;;;;;5044498;28;20044;-71
2023/03/14 10:10:24;;;;;;;2.17;0.32;;;11.80;99.90;;;;;;5042089;28;20144;-64
2023/03/14 10:13:09;;;;;;;0.60;0.20;;;11.90;99.90;;;;;;5045947;28;20034;-74
2023/03/14 10:15:36;;;;;;;0.77;0.20;;;12.00;99.90;;;;;;5043400;28;20036;-73
2023/03/14 10:18:04;;;;;;;0.68;0.20;;;11.90;99.90;;;;;;5042176;28;20078;-72
2023/03/14 10:20:45;;;;;;;0.52;0.20;;;12.10;99.90;;;;;;5037256;28;20474;-73
2023/03/14 10:23:11;;;;;;;1.85;0.10;;;12.30;99.90;;;;;;5029466;28;20517;-72
2023/03/14 10:25:38;;;;;;;0.30;0.10;;;12.30;99.90;;;;;;5030062;28;20108;-70
2023/03/14 10:28:05;;;;;;;1.17;0.17;;;12.30;99.90;;;;;;5027351;28;20116;-72
2023/03/14 10:30:44;;;;;;;1.02;0.10;;;12.20;99.90;;;;;;5028919;28;20499;-71
2023/03/14 10:33:18;;;;;;;4.75;0.20;;;12.00;99.90;;;;;;5021566;28;20124;-71
2023/03/14 10:35:44;;;;;;;0.30;0.10;;;12.00;99.90;;;;;;5028215;28;20186;-72
2023/03/14 10:38:16;;;;;;;0.75;0.20;;;12.10;99.90;;;;;;5030658;28;20523;-72
2023/03/14 10:40:52;;;;;;;5.05;0.17;;;12.10;99.90;;;;;;5027293;28;20087;-71
2023/03/14 10:43:26;;;;;;;2.90;0.22;;;12.10;99.90;;;;;;5028081;28;20025;-69
2023/03/14 10:46:08;;;;;;;3.22;0.20;;;11.80;99.90;;;;;;5030463;28;20033;-70
2023/03/14 10:48:36;;;;;;;1.67;0.00;;;11.70;99.90;;;;;;5028996;28;20041;-70
2023/03/14 10:51:18;;;;;;;1.38;0.10;;;11.90;99.90;;;;;;5029801;28;20069;-70
2023/03/14 10:53:45;;;;;;;2.20;0.10;;;12.10;99.90;;;;;;5028040;28;20044;-71
2023/03/14 10:56:13;;;;;;;1.17;0.20;;;12.30;99.90;;;;;;5033880;28;20482;-69
2023/03/14 10:58:42;;;;;;;1.95;0.10;;;12.30;99.90;;;;;;5029486;28;20044;-69
2023/03/14 11:01:37;;;;;;;0.22;0.10;;;12.60;99.90;;;;;;5027206;28;20033;-69
2023/03/14 11:04:43;;;;;;;0.40;0.20;;;12.40;99.90;;;;;;5027534;28;20033;-68
2023/03/14 11:07:21;;;;;;;0.43;0.10;;;12.70;99.90;;;;;;5032429;28;20047;-70
2023/03/14 11:10:02;;;;;;;1.77;0.28;;;12.80;99.90;;;;;;5029552;28;20064;-68
2023/03/14 11:12:34;;;;;;;0.68;0.10;;;12.70;99.90;;;;;;5023546;28;20056;-69
2023/03/14 11:15:20;;;;;;;0.30;0.10;;;12.80;99.90;;;;;;5022348;28;20367;-70
2023/03/14 11:18:03;;;;;;;1.00;0.20;;;12.70;99.90;;;;;;5026524;28;20108;-70
2023/03/14 11:20:42;;;;;;;1.95;0.10;;;12.80;99.90;;;;;;5028801;28;20034;-70
2023/03/14 11:23:14;;;;;;;0.80;0.20;;;12.50;99.90;;;;;;5028282;28;20037;-69
2023/03/14 11:26:13;;;;;;;0.47;0.10;;;12.30;99.90;;;;;;5033816;28;20466;-71
2023/03/14 11:28:47;;;;;;;1.13;0.10;;;12.10;99.90;;;;;;5021363;28;20037;-70
2023/03/14 11:31:17;;;;;;;0.80;0.20;;;11.90;99.90;;;;;;5029333;28;20041;-70
2023/03/14 11:34:06;;;;;;;0.20;0.10;;;11.90;99.90;;;;;;5027947;28;20501;-70
2023/03/14 11:36:38;;;;;;;0.43;0.10;;;12.10;99.90;;;;;;5020338;28;20037;-71
2023/03/14 11:39:13;;;;;;;1.95;0.10;;;12.10;99.90;;;;;;5027800;28;20494;-72
2023/03/14 11:41:42;;;;;;;3.00;0.20;;;12.00;99.90;;;;;;5021483;28;20040;-72
2023/03/14 11:44:24;;;;;;;0.52;0.10;;;11.70;99.90;;;;;;5026652;28;20534;-72
2023/03/14 11:46:55;;;;;;;4.00;0.20;;;10.90;99.90;;;;;;5028884;28;20120;-73
2023/03/14 11:49:38;;;;;;;1.15;0.25;;;10.60;99.90;;;;;;5026730;28;20057;-72
2023/03/14 11:52:39;;;;;;;0.88;0.30;;;10.40;99.90;;;;;;5028358;28;20034;-71
2023/03/14 11:55:15;;;;;;;0.30;0.08;;;10.30;99.90;;;;;;5022869;28;20033;-70
2023/03/14 11:57:41;;;;;;;0.60;0.30;;;10.20;99.90;;;;;;5026497;28;20057;-70
2023/03/14 12:00:24;;;;;;;0.38;0.30;;;10.10;99.90;;;;;;5027906;28;20512;-69
2023/03/14 12:03:04;;;;;;;1.63;0.50;;;10.00;99.90;;;;;;5020067;28;20021;-70
2023/03/14 12:05:45;;;;;;;0.38;0.20;;;10.00;99.90;;;;;;5028897;28;20460;-73
2023/03/14 12:08:30;;;;;;;0.50;0.10;;;9.90;99.90;;;;;;5027394;28;20026;-69
2023/03/14 12:11:30;;;;;;;1.35;0.50;;;9.80;99.90;;;;;;5022006;28;20049;-72
2023/03/14 12:13:56;;;;;;;0.80;0.13;;;9.70;99.90;;;;;;5006724;28;20381;-71
2023/03/14 12:16:24;;;;;;;3.08;0.47;;;9.70;99.90;;;;;;5029127;28;20065;-70
2023/03/14 12:18:54;;;;;;;4.97;0.30;;;9.60;99.90;;;;;;5031034;28;20041;-72
2023/03/14 12:21:21;;;;;;;2.78;0.20;;;9.50;99.90;;;;;;5027489;28;20025;-70
2023/03/14 12:23:49;;;;;;;0.43;0.20;;;9.50;99.90;;;;;;5025884;28;20026;-70
2023/03/14 12:26:19;;;;;;;0.63;0.20;;;9.40;99.90;;;;;;5028930;28;20492;-70
2023/03/14 12:28:56;;;;;;;0.30;0.10;;;9.50;99.90;;;;;;5025970;28;20040;-69
2023/03/14 12:31:28;;;;;;;1.40;0.20;;;9.50;99.90;;;;;;5028327;28;20117;-72
2023/03/14 12:34:10;;;;;;;2.78;0.40;;;9.50;99.90;;;;;;5027000;28;20044;-71
2023/03/14 12:36:48;;;;;;;1.35;0.30;;;9.50;99.90;;;;;;5027524;28;20493;-66
2023/03/14 12:39:23;;;;;;;0.90;0.20;;;9.50;99.90;;;;;;5025268;28;20025;-71
2023/03/14 12:42:00;;;;;;;0.40;0.20;;;9.50;99.90;;;;;;5027489;28;20504;-71
2023/03/14 12:44:29;;;;;;;0.50;0.20;;;9.40;99.90;;;;;;5028358;28;20113;-66
2023/03/14 12:47:22;;;;;;;3.28;0.50;;;9.40;99.90;;;;;;5027768;28;20033;-71
2023/03/14 12:49:56;;;;;;;2.30;0.20;;;9.30;99.90;;;;;;5023532;28;20302;-70
2023/03/14 12:52:40;;;;;;;1.10;0.25;;;9.30;99.90;;;;;;5022159;28;20037;-69
2023/03/14 12:55:17;;;;;;;0.50;0.28;;;9.30;99.90;;;;;;5031013;28;20026;-70
2023/03/14 12:57:55;;;;;;;0.30;0.10;;;9.10;99.90;;;;;;5026845;28;20035;-72
2023/03/14 13:00:33;;;;;;;2.13;0.52;;;9.10;99.90;;;;;;5021818;28;20493;-70
2023/03/14 13:03:43;;;;;;;0.40;0.20;;;9.10;99.90;;;;;;5026495;28;20037;-68